sensor_id;sensor_type;location;lat;lon;timestamp;P1;durP1;ratioP1;P2;durP2;ratioP2
49422;SDS011;36998;51.974;20.150;2022-11-15T00:01:01;60.25;;;26.08;;
49422;SDS011;36998;51.974;20.150;2022-11-15T00:03:45;70.93;;;27.33;;
49422;SDS011;36998;51.974;20.150;2022-11-15T00:06:30;73.90;;;28.45;;
49422;SDS011;36998;51.974;20.150;2022-11-15T00:09:15;74.35;;;29.23;;
49422;SDS011;36998;51.974;20.150;2022-11-15T00:11:59;77.45;;;29.35;;
49422;SDS011;36998;51.974;20.150;2022-11-15T00:14:43;79.85;;;27.63;;
49422;SDS011;36998;51.974;20.150;2022-11-15T00:17:27;78.43;;;29.35;;
49422;SDS011;36998;51.974;20.150;2022-11-15T00:20:10;71.72;;;28.10;;
49422;SDS011;36998;51.974;20.150;2022-11-15T00:22:55;78.32;;;30.35;;
49422;SDS011;36998;51.974;20.150;2022-11-15T00:25:39;73.05;;;28.80;;
49422;SDS011;36998;51.974;20.150;2022-11-15T00:28:24;78.53;;;29.02;;
49422;SDS011;36998;51.974;20.150;2022-11-15T00:31:11;81.00;;;31.30;;
49422;SDS011;36998;51.974;20.150;2022-11-15T00:33:57;81.78;;;29.67;;
49422;SDS011;36998;51.974;20.150;2022-11-15T00:36:41;78.00;;;29.40;;
49422;SDS011;36998;51.974;20.150;2022-11-15T00:39:25;76.57;;;28.52;;
49422;SDS011;36998;51.974;20.150;2022-11-15T00:42:10;75.95;;;28.80;;
49422;SDS011;36998;51.974;20.150;2022-11-15T00:44:54;81.43;;;30.30;;
49422;SDS011;36998;51.974;20.150;2022-11-15T00:47:38;76.90;;;30.23;;
49422;SDS011;36998;51.974;20.150;2022-11-15T00:50:22;84.00;;;32.50;;
49422;SDS011;36998;51.974;20.150;2022-11-15T00:53:07;80.55;;;29.67;;
49422;SDS011;36998;51.974;20.150;2022-11-15T00:55:51;82.22;;;29.92;;
49422;SDS011;36998;51.974;20.150;2022-11-15T00:58:35;82.90;;;31.38;;
49422;SDS011;36998;51.974;20.150;2022-11-15T01:01:19;78.90;;;29.08;;
49422;SDS011;36998;51.974;20.150;2022-11-15T01:04:05;75.45;;;29.45;;
49422;SDS011;36998;51.974;20.150;2022-11-15T01:06:49;85.30;;;32.78;;
49422;SDS011;36998;51.974;20.150;2022-11-15T01:09:33;73.38;;;28.67;;
49422;SDS011;36998;51.974;20.150;2022-11-15T01:12:17;86.03;;;32.53;;
49422;SDS011;36998;51.974;20.150;2022-11-15T01:15:01;80.00;;;30.58;;
49422;SDS011;36998;51.974;20.150;2022-11-15T01:17:46;87.70;;;31.73;;
49422;SDS011;36998;51.974;20.150;2022-11-15T01:20:30;84.60;;;31.23;;
49422;SDS011;36998;51.974;20.150;2022-11-15T01:23:14;84.88;;;31.38;;
49422;SDS011;36998;51.974;20.150;2022-11-15T01:25:59;79.18;;;30.10;;
49422;SDS011;36998;51.974;20.150;2022-11-15T01:28:43;77.50;;;28.75;;
49422;SDS011;36998;51.974;20.150;2022-11-15T01:31:27;80.57;;;29.45;;
49422;SDS011;36998;51.974;20.150;2022-11-15T01:34:11;88.82;;;32.22;;
49422;SDS011;36998;51.974;20.150;2022-11-15T01:36:56;79.55;;;28.73;;
49422;SDS011;36998;51.974;20.150;2022-11-15T01:39:40;84.97;;;30.58;;
49422;SDS011;36998;51.974;20.150;2022-11-15T01:42:24;84.22;;;30.60;;
49422;SDS011;36998;51.974;20.150;2022-11-15T01:45:13;80.85;;;29.63;;
49422;SDS011;36998;51.974;20.150;2022-11-15T01:47:58;82.10;;;30.80;;
49422;SDS011;36998;51.974;20.150;2022-11-15T01:50:43;90.15;;;30.90;;
49422;SDS011;36998;51.974;20.150;2022-11-15T01:53:28;82.68;;;31.88;;
49422;SDS011;36998;51.974;20.150;2022-11-15T01:56:20;85.35;;;30.45;;
49422;SDS011;36998;51.974;20.150;2022-11-15T01:59:08;88.28;;;31.00;;
49422;SDS011;36998;51.974;20.150;2022-11-15T02:01:54;88.25;;;29.98;;
49422;SDS011;36998;51.974;20.150;2022-11-15T02:04:42;84.95;;;30.73;;
49422;SDS011;36998;51.974;20.150;2022-11-15T02:07:28;88.68;;;31.17;;
49422;SDS011;36998;51.974;20.150;2022-11-15T02:10:17;84.50;;;33.05;;
49422;SDS011;36998;51.974;20.150;2022-11-15T02:13:03;93.53;;;33.47;;
49422;SDS011;36998;51.974;20.150;2022-11-15T02:15:51;87.85;;;32.92;;
49422;SDS011;36998;51.974;20.150;2022-11-15T02:18:39;88.28;;;29.42;;
49422;SDS011;36998;51.974;20.150;2022-11-15T02:37:28;80.63;;;29.38;;
49422;SDS011;36998;51.974;20.150;2022-11-15T02:40:32;79.18;;;28.70;;
49422;SDS011;36998;51.974;20.150;2022-11-15T02:43:25;86.35;;;28.58;;
49422;SDS011;36998;51.974;20.150;2022-11-15T02:49:54;81.47;;;27.08;;
49422;SDS011;36998;51.974;20.150;2022-11-15T02:52:40;78.68;;;27.50;;
49422;SDS011;36998;51.974;20.150;2022-11-15T02:55:32;79.28;;;27.90;;
49422;SDS011;36998;51.974;20.150;2022-11-15T02:58:35;78.40;;;28.45;;
49422;SDS011;36998;51.974;20.150;2022-11-15T03:04:43;81.45;;;28.00;;
49422;SDS011;36998;51.974;20.150;2022-11-15T03:07:36;79.07;;;27.10;;
49422;SDS011;36998;51.974;20.150;2022-11-15T03:10:32;76.78;;;27.52;;
49422;SDS011;36998;51.974;20.150;2022-11-15T03:13:26;80.05;;;29.42;;
49422;SDS011;36998;51.974;20.150;2022-11-15T03:16:20;75.32;;;26.23;;
49422;SDS011;36998;51.974;20.150;2022-11-15T03:22:08;72.72;;;25.90;;
49422;SDS011;36998;51.974;20.150;2022-11-15T03:24:57;75.80;;;26.10;;
49422;SDS011;36998;51.974;20.150;2022-11-15T03:27:45;84.53;;;28.75;;
49422;SDS011;36998;51.974;20.150;2022-11-15T03:30:32;72.65;;;26.60;;
49422;SDS011;36998;51.974;20.150;2022-11-15T03:33:21;79.85;;;27.40;;
49422;SDS011;36998;51.974;20.150;2022-11-15T03:36:05;73.07;;;26.27;;
49422;SDS011;36998;51.974;20.150;2022-11-15T03:38:52;81.00;;;28.50;;
49422;SDS011;36998;51.974;20.150;2022-11-15T03:41:43;75.65;;;27.20;;
49422;SDS011;36998;51.974;20.150;2022-11-15T03:47:31;86.97;;;28.85;;
49422;SDS011;36998;51.974;20.150;2022-11-15T03:50:20;80.43;;;28.70;;
49422;SDS011;36998;51.974;20.150;2022-11-15T03:53:05;76.45;;;27.65;;
49422;SDS011;36998;51.974;20.150;2022-11-15T03:55:50;74.13;;;26.48;;
49422;SDS011;36998;51.974;20.150;2022-11-15T03:58:34;88.07;;;29.58;;
49422;SDS011;36998;51.974;20.150;2022-11-15T04:01:18;87.50;;;26.15;;
49422;SDS011;36998;51.974;20.150;2022-11-15T04:04:02;70.40;;;25.88;;
49422;SDS011;36998;51.974;20.150;2022-11-15T04:06:46;81.47;;;24.15;;
49422;SDS011;36998;51.974;20.150;2022-11-15T04:09:30;69.22;;;24.10;;
49422;SDS011;36998;51.974;20.150;2022-11-15T04:12:14;68.00;;;24.48;;
49422;SDS011;36998;51.974;20.150;2022-11-15T04:15:15;76.53;;;25.75;;
49422;SDS011;36998;51.974;20.150;2022-11-15T04:18:01;77.55;;;26.15;;
49422;SDS011;36998;51.974;20.150;2022-11-15T04:20:45;78.38;;;25.55;;
49422;SDS011;36998;51.974;20.150;2022-11-15T04:23:48;81.80;;;27.45;;
49422;SDS011;36998;51.974;20.150;2022-11-15T04:26:50;70.18;;;24.55;;
49422;SDS011;36998;51.974;20.150;2022-11-15T04:29:35;82.57;;;26.83;;
49422;SDS011;36998;51.974;20.150;2022-11-15T04:32:18;75.30;;;25.95;;
49422;SDS011;36998;51.974;20.150;2022-11-15T04:35:02;81.65;;;25.85;;
49422;SDS011;36998;51.974;20.150;2022-11-15T04:37:47;76.55;;;25.48;;
49422;SDS011;36998;51.974;20.150;2022-11-15T04:40:31;77.70;;;26.10;;
49422;SDS011;36998;51.974;20.150;2022-11-15T04:43:15;91.85;;;25.77;;
49422;SDS011;36998;51.974;20.150;2022-11-15T04:45:59;78.50;;;24.88;;
49422;SDS011;36998;51.974;20.150;2022-11-15T04:48:43;87.65;;;26.80;;
49422;SDS011;36998;51.974;20.150;2022-11-15T04:51:27;89.90;;;24.48;;
49422;SDS011;36998;51.974;20.150;2022-11-15T04:54:11;84.43;;;29.70;;
49422;SDS011;36998;51.974;20.150;2022-11-15T04:56:55;97.30;;;29.30;;
49422;SDS011;36998;51.974;20.150;2022-11-15T04:59:39;88.93;;;27.15;;
49422;SDS011;36998;51.974;20.150;2022-11-15T05:02:23;87.32;;;24.60;;
49422;SDS011;36998;51.974;20.150;2022-11-15T05:05:07;89.63;;;26.95;;
49422;SDS011;36998;51.974;20.150;2022-11-15T05:07:51;93.20;;;28.38;;
49422;SDS011;36998;51.974;20.150;2022-11-15T05:10:35;89.28;;;25.70;;
49422;SDS011;36998;51.974;20.150;2022-11-15T05:13:19;84.70;;;25.60;;
49422;SDS011;36998;51.974;20.150;2022-11-15T05:16:04;83.72;;;24.73;;
49422;SDS011;36998;51.974;20.150;2022-11-15T05:18:51;87.22;;;26.98;;
49422;SDS011;36998;51.974;20.150;2022-11-15T05:21:37;82.10;;;24.73;;
49422;SDS011;36998;51.974;20.150;2022-11-15T05:24:21;90.65;;;26.00;;
49422;SDS011;36998;51.974;20.150;2022-11-15T05:27:05;84.78;;;27.27;;
49422;SDS011;36998;51.974;20.150;2022-11-15T05:29:50;91.65;;;25.23;;
49422;SDS011;36998;51.974;20.150;2022-11-15T05:32:33;85.88;;;24.20;;
49422;SDS011;36998;51.974;20.150;2022-11-15T05:35:34;86.25;;;25.05;;
49422;SDS011;36998;51.974;20.150;2022-11-15T05:38:23;82.70;;;25.33;;
49422;SDS011;36998;51.974;20.150;2022-11-15T05:41:07;94.50;;;25.42;;
49422;SDS011;36998;51.974;20.150;2022-11-15T05:43:52;87.78;;;25.40;;
49422;SDS011;36998;51.974;20.150;2022-11-15T05:46:37;82.00;;;22.38;;
49422;SDS011;36998;51.974;20.150;2022-11-15T05:49:25;126.43;;;43.13;;
49422;SDS011;36998;51.974;20.150;2022-11-15T05:52:13;88.97;;;25.33;;
49422;SDS011;36998;51.974;20.150;2022-11-15T05:54:59;86.78;;;25.25;;
49422;SDS011;36998;51.974;20.150;2022-11-15T05:57:44;93.05;;;25.20;;
49422;SDS011;36998;51.974;20.150;2022-11-15T06:00:28;95.72;;;22.77;;
49422;SDS011;36998;51.974;20.150;2022-11-15T06:03:13;89.82;;;23.30;;
49422;SDS011;36998;51.974;20.150;2022-11-15T06:05:57;99.13;;;26.35;;
49422;SDS011;36998;51.974;20.150;2022-11-15T06:08:41;93.60;;;25.90;;
49422;SDS011;36998;51.974;20.150;2022-11-15T06:11:25;92.03;;;25.17;;
49422;SDS011;36998;51.974;20.150;2022-11-15T06:14:09;108.07;;;26.38;;
49422;SDS011;36998;51.974;20.150;2022-11-15T06:16:53;101.18;;;25.58;;
49422;SDS011;36998;51.974;20.150;2022-11-15T06:19:38;94.28;;;24.58;;
49422;SDS011;36998;51.974;20.150;2022-11-15T06:22:22;84.50;;;23.40;;
49422;SDS011;36998;51.974;20.150;2022-11-15T06:25:06;86.10;;;24.42;;
49422;SDS011;36998;51.974;20.150;2022-11-15T06:27:51;95.55;;;26.90;;
49422;SDS011;36998;51.974;20.150;2022-11-15T06:30:37;86.43;;;23.98;;
49422;SDS011;36998;51.974;20.150;2022-11-15T06:33:21;87.28;;;25.55;;
49422;SDS011;36998;51.974;20.150;2022-11-15T06:36:06;87.55;;;26.13;;
49422;SDS011;36998;51.974;20.150;2022-11-15T06:38:52;80.70;;;24.75;;
49422;SDS011;36998;51.974;20.150;2022-11-15T06:41:36;91.13;;;24.90;;
49422;SDS011;36998;51.974;20.150;2022-11-15T06:44:20;85.15;;;24.88;;
49422;SDS011;36998;51.974;20.150;2022-11-15T06:47:04;78.32;;;24.02;;
49422;SDS011;36998;51.974;20.150;2022-11-15T06:49:48;75.90;;;23.67;;
49422;SDS011;36998;51.974;20.150;2022-11-15T06:52:33;80.97;;;25.00;;
49422;SDS011;36998;51.974;20.150;2022-11-15T06:55:16;83.07;;;25.02;;
49422;SDS011;36998;51.974;20.150;2022-11-15T06:58:00;84.60;;;24.70;;
49422;SDS011;36998;51.974;20.150;2022-11-15T07:00:44;75.68;;;24.25;;
49422;SDS011;36998;51.974;20.150;2022-11-15T07:03:29;78.05;;;24.20;;
49422;SDS011;36998;51.974;20.150;2022-11-15T07:06:13;81.38;;;24.92;;
49422;SDS011;36998;51.974;20.150;2022-11-15T07:08:57;88.53;;;29.00;;
49422;SDS011;36998;51.974;20.150;2022-11-15T07:11:42;67.88;;;24.63;;
49422;SDS011;36998;51.974;20.150;2022-11-15T07:14:27;73.00;;;24.73;;
49422;SDS011;36998;51.974;20.150;2022-11-15T07:17:11;82.70;;;26.02;;
49422;SDS011;36998;51.974;20.150;2022-11-15T07:19:55;73.43;;;25.42;;
49422;SDS011;36998;51.974;20.150;2022-11-15T07:22:39;68.03;;;25.15;;
49422;SDS011;36998;51.974;20.150;2022-11-15T07:25:24;76.13;;;23.95;;
49422;SDS011;36998;51.974;20.150;2022-11-15T07:28:09;68.28;;;24.02;;
49422;SDS011;36998;51.974;20.150;2022-11-15T07:30:53;58.25;;;23.95;;
49422;SDS011;36998;51.974;20.150;2022-11-15T07:33:38;63.67;;;22.70;;
49422;SDS011;36998;51.974;20.150;2022-11-15T07:36:22;73.78;;;25.38;;
49422;SDS011;36998;51.974;20.150;2022-11-15T07:39:06;56.08;;;23.08;;
49422;SDS011;36998;51.974;20.150;2022-11-15T07:41:50;68.43;;;24.20;;
49422;SDS011;36998;51.974;20.150;2022-11-15T07:44:54;58.05;;;22.67;;
49422;SDS011;36998;51.974;20.150;2022-11-15T07:47:38;62.13;;;23.42;;
49422;SDS011;36998;51.974;20.150;2022-11-15T07:50:24;59.13;;;21.27;;
49422;SDS011;36998;51.974;20.150;2022-11-15T07:53:09;60.50;;;23.05;;
49422;SDS011;36998;51.974;20.150;2022-11-15T07:55:54;57.20;;;22.95;;
49422;SDS011;36998;51.974;20.150;2022-11-15T07:58:38;57.58;;;23.73;;
49422;SDS011;36998;51.974;20.150;2022-11-15T08:01:22;61.85;;;22.88;;
49422;SDS011;36998;51.974;20.150;2022-11-15T08:04:06;61.00;;;22.92;;
49422;SDS011;36998;51.974;20.150;2022-11-15T08:06:51;61.33;;;23.17;;
49422;SDS011;36998;51.974;20.150;2022-11-15T08:09:35;60.40;;;23.55;;
49422;SDS011;36998;51.974;20.150;2022-11-15T08:12:19;59.95;;;24.50;;
49422;SDS011;36998;51.974;20.150;2022-11-15T08:15:03;65.68;;;25.25;;
49422;SDS011;36998;51.974;20.150;2022-11-15T08:17:52;57.00;;;24.58;;
49422;SDS011;36998;51.974;20.150;2022-11-15T08:20:37;59.97;;;23.05;;
49422;SDS011;36998;51.974;20.150;2022-11-15T08:23:22;58.00;;;22.70;;
49422;SDS011;36998;51.974;20.150;2022-11-15T08:26:06;56.08;;;22.88;;
49422;SDS011;36998;51.974;20.150;2022-11-15T08:28:50;57.97;;;24.13;;
49422;SDS011;36998;51.974;20.150;2022-11-15T08:31:35;53.88;;;22.70;;
49422;SDS011;36998;51.974;20.150;2022-11-15T08:34:20;58.05;;;23.98;;
49422;SDS011;36998;51.974;20.150;2022-11-15T08:37:04;58.13;;;23.40;;
49422;SDS011;36998;51.974;20.150;2022-11-15T08:39:48;56.45;;;22.42;;
49422;SDS011;36998;51.974;20.150;2022-11-15T08:42:32;50.92;;;21.77;;
49422;SDS011;36998;51.974;20.150;2022-11-15T08:45:17;56.22;;;22.92;;
49422;SDS011;36998;51.974;20.150;2022-11-15T08:48:01;53.92;;;24.38;;
49422;SDS011;36998;51.974;20.150;2022-11-15T08:50:47;57.35;;;24.75;;
49422;SDS011;36998;51.974;20.150;2022-11-15T08:53:31;65.72;;;24.27;;
49422;SDS011;36998;51.974;20.150;2022-11-15T08:56:16;54.22;;;22.50;;
49422;SDS011;36998;51.974;20.150;2022-11-15T08:59:00;49.95;;;22.42;;
49422;SDS011;36998;51.974;20.150;2022-11-15T09:01:44;54.63;;;23.95;;
49422;SDS011;36998;51.974;20.150;2022-11-15T09:04:28;53.88;;;22.85;;
49422;SDS011;36998;51.974;20.150;2022-11-15T09:07:13;58.60;;;23.60;;
49422;SDS011;36998;51.974;20.150;2022-11-15T09:09:58;52.55;;;23.02;;
49422;SDS011;36998;51.974;20.150;2022-11-15T09:12:42;61.13;;;24.38;;
49422;SDS011;36998;51.974;20.150;2022-11-15T09:15:27;48.83;;;22.83;;
49422;SDS011;36998;51.974;20.150;2022-11-15T09:18:11;57.00;;;24.63;;
49422;SDS011;36998;51.974;20.150;2022-11-15T09:20:56;54.28;;;24.63;;
49422;SDS011;36998;51.974;20.150;2022-11-15T09:23:42;60.70;;;24.95;;
49422;SDS011;36998;51.974;20.150;2022-11-15T09:26:26;56.05;;;24.13;;
49422;SDS011;36998;51.974;20.150;2022-11-15T09:29:12;50.65;;;23.33;;
49422;SDS011;36998;51.974;20.150;2022-11-15T09:31:56;51.47;;;23.98;;
49422;SDS011;36998;51.974;20.150;2022-11-15T09:34:40;56.00;;;24.92;;
49422;SDS011;36998;51.974;20.150;2022-11-15T09:37:25;48.25;;;22.73;;
49422;SDS011;36998;51.974;20.150;2022-11-15T09:40:09;50.53;;;24.13;;
49422;SDS011;36998;51.974;20.150;2022-11-15T09:45:57;58.47;;;26.33;;
49422;SDS011;36998;51.974;20.150;2022-11-15T09:49:00;51.35;;;23.73;;
49422;SDS011;36998;51.974;20.150;2022-11-15T09:51:40;52.28;;;23.92;;
49422;SDS011;36998;51.974;20.150;2022-11-15T09:56:51;55.25;;;25.77;;
49422;SDS011;36998;51.974;20.150;2022-11-15T10:04:20;59.90;;;25.50;;
49422;SDS011;36998;51.974;20.150;2022-11-15T10:12:12;56.47;;;25.08;;
49422;SDS011;36998;51.974;20.150;2022-11-15T10:14:39;58.60;;;27.10;;
49422;SDS011;36998;51.974;20.150;2022-11-15T10:20:00;52.80;;;26.83;;
49422;SDS011;36998;51.974;20.150;2022-11-15T10:22:44;53.45;;;24.75;;
49422;SDS011;36998;51.974;20.150;2022-11-15T10:30:22;55.25;;;26.02;;
49422;SDS011;36998;51.974;20.150;2022-11-15T10:32:49;53.45;;;26.50;;
49422;SDS011;36998;51.974;20.150;2022-11-15T10:35:25;52.55;;;25.45;;
49422;SDS011;36998;51.974;20.150;2022-11-15T10:38:04;56.78;;;25.52;;
49422;SDS011;36998;51.974;20.150;2022-11-15T10:40:33;51.63;;;25.63;;
49422;SDS011;36998;51.974;20.150;2022-11-15T10:43:13;51.67;;;25.48;;
49422;SDS011;36998;51.974;20.150;2022-11-15T10:45:41;54.85;;;27.90;;
49422;SDS011;36998;51.974;20.150;2022-11-15T10:50:39;145.18;;;67.47;;
49422;SDS011;36998;51.974;20.150;2022-11-15T10:53:17;58.45;;;28.30;;
49422;SDS011;36998;51.974;20.150;2022-11-15T10:55:52;54.70;;;27.80;;
49422;SDS011;36998;51.974;20.150;2022-11-15T11:00:53;50.85;;;26.15;;
49422;SDS011;36998;51.974;20.150;2022-11-15T11:03:29;51.10;;;25.02;;
49422;SDS011;36998;51.974;20.150;2022-11-15T11:06:16;48.60;;;24.17;;
49422;SDS011;36998;51.974;20.150;2022-11-15T11:08:55;44.95;;;24.73;;
49422;SDS011;36998;51.974;20.150;2022-11-15T11:11:26;46.65;;;25.55;;
49422;SDS011;36998;51.974;20.150;2022-11-15T11:14:11;50.33;;;27.45;;
49422;SDS011;36998;51.974;20.150;2022-11-15T11:16:42;46.35;;;26.08;;
49422;SDS011;36998;51.974;20.150;2022-11-15T11:19:27;52.88;;;27.98;;
49422;SDS011;36998;51.974;20.150;2022-11-15T11:22:14;53.15;;;27.40;;
49422;SDS011;36998;51.974;20.150;2022-11-15T11:25:04;52.58;;;27.80;;
49422;SDS011;36998;51.974;20.150;2022-11-15T11:28:02;48.63;;;27.17;;
49422;SDS011;36998;51.974;20.150;2022-11-15T11:30:42;46.42;;;25.80;;
49422;SDS011;36998;51.974;20.150;2022-11-15T11:33:16;46.67;;;25.83;;
49422;SDS011;36998;51.974;20.150;2022-11-15T11:35:59;44.80;;;25.77;;
49422;SDS011;36998;51.974;20.150;2022-11-15T11:41:23;45.38;;;25.23;;
49422;SDS011;36998;51.974;20.150;2022-11-15T11:47:08;39.78;;;23.30;;
49422;SDS011;36998;51.974;20.150;2022-11-15T11:49:57;44.42;;;24.25;;
49422;SDS011;36998;51.974;20.150;2022-11-15T11:52:27;63.72;;;37.08;;
49422;SDS011;36998;51.974;20.150;2022-11-15T12:00:29;40.28;;;24.27;;
49422;SDS011;36998;51.974;20.150;2022-11-15T12:05:44;42.95;;;25.52;;
49422;SDS011;36998;51.974;20.150;2022-11-15T12:11:12;37.72;;;25.50;;
49422;SDS011;36998;51.974;20.150;2022-11-15T12:13:55;89.95;;;60.92;;
49422;SDS011;36998;51.974;20.150;2022-11-15T12:16:31;51.05;;;30.13;;
49422;SDS011;36998;51.974;20.150;2022-11-15T12:19:02;38.63;;;25.25;;
49422;SDS011;36998;51.974;20.150;2022-11-15T12:27:35;37.65;;;25.33;;
49422;SDS011;36998;51.974;20.150;2022-11-15T12:30:17;39.30;;;24.83;;
49422;SDS011;36998;51.974;20.150;2022-11-15T12:32:53;37.47;;;24.75;;
49422;SDS011;36998;51.974;20.150;2022-11-15T12:35:35;59.55;;;38.35;;
49422;SDS011;36998;51.974;20.150;2022-11-15T12:38:10;39.58;;;26.20;;
49422;SDS011;36998;51.974;20.150;2022-11-15T12:41:12;40.65;;;26.30;;
49422;SDS011;36998;51.974;20.150;2022-11-15T12:43:42;37.50;;;26.55;;
49422;SDS011;36998;51.974;20.150;2022-11-15T12:46:11;40.13;;;26.58;;
49422;SDS011;36998;51.974;20.150;2022-11-15T12:48:45;44.92;;;26.02;;
49422;SDS011;36998;51.974;20.150;2022-11-15T12:51:13;39.83;;;26.00;;
49422;SDS011;36998;51.974;20.150;2022-11-15T12:53:38;42.97;;;26.20;;
49422;SDS011;36998;51.974;20.150;2022-11-15T12:58:46;43.50;;;26.65;;
49422;SDS011;36998;51.974;20.150;2022-11-15T13:07:05;41.13;;;24.90;;
49422;SDS011;36998;51.974;20.150;2022-11-15T13:10:07;43.17;;;25.70;;
49422;SDS011;36998;51.974;20.150;2022-11-15T13:14:53;43.67;;;26.33;;
49422;SDS011;36998;51.974;20.150;2022-11-15T13:19:58;46.42;;;26.35;;
49422;SDS011;36998;51.974;20.150;2022-11-15T13:25:42;48.28;;;27.05;;
49422;SDS011;36998;51.974;20.150;2022-11-15T13:28:24;50.78;;;26.40;;
49422;SDS011;36998;51.974;20.150;2022-11-15T13:30:56;45.60;;;26.45;;
49422;SDS011;36998;51.974;20.150;2022-11-15T13:33:34;49.88;;;28.02;;
49422;SDS011;36998;51.974;20.150;2022-11-15T13:36:02;51.28;;;30.13;;
49422;SDS011;36998;51.974;20.150;2022-11-15T13:38:40;65.65;;;32.28;;
49422;SDS011;36998;51.974;20.150;2022-11-15T13:43:41;48.67;;;27.77;;
49422;SDS011;36998;51.974;20.150;2022-11-15T13:46:09;49.30;;;29.33;;
49422;SDS011;36998;51.974;20.150;2022-11-15T13:48:43;47.75;;;28.33;;
49422;SDS011;36998;51.974;20.150;2022-11-15T13:53:58;56.55;;;28.42;;
49422;SDS011;36998;51.974;20.150;2022-11-15T13:56:28;51.90;;;28.38;;
49422;SDS011;36998;51.974;20.150;2022-11-15T13:58:55;54.00;;;28.90;;
49422;SDS011;36998;51.974;20.150;2022-11-15T14:01:21;50.08;;;28.83;;
49422;SDS011;36998;51.974;20.150;2022-11-15T14:03:49;66.40;;;31.05;;
49422;SDS011;36998;51.974;20.150;2022-11-15T14:06:18;55.60;;;30.45;;
49422;SDS011;36998;51.974;20.150;2022-11-15T14:11:59;63.03;;;31.30;;
49422;SDS011;36998;51.974;20.150;2022-11-15T14:14:27;60.30;;;30.33;;
49422;SDS011;36998;51.974;20.150;2022-11-15T14:16:57;55.40;;;29.55;;
49422;SDS011;36998;51.974;20.150;2022-11-15T14:24:34;54.53;;;28.90;;
49422;SDS011;36998;51.974;20.150;2022-11-15T14:27:17;57.75;;;29.80;;
49422;SDS011;36998;51.974;20.150;2022-11-15T14:29:51;54.80;;;29.42;;
49422;SDS011;36998;51.974;20.150;2022-11-15T14:32:21;57.22;;;30.50;;
49422;SDS011;36998;51.974;20.150;2022-11-15T14:34:56;58.83;;;28.73;;
49422;SDS011;36998;51.974;20.150;2022-11-15T14:39:58;66.40;;;34.03;;
49422;SDS011;36998;51.974;20.150;2022-11-15T14:42:24;83.75;;;35.20;;
49422;SDS011;36998;51.974;20.150;2022-11-15T14:44:50;79.38;;;36.63;;
49422;SDS011;36998;51.974;20.150;2022-11-15T14:47:16;79.22;;;33.90;;
49422;SDS011;36998;51.974;20.150;2022-11-15T14:49:42;67.90;;;33.80;;
49422;SDS011;36998;51.974;20.150;2022-11-15T14:54:48;77.22;;;33.22;;
49422;SDS011;36998;51.974;20.150;2022-11-15T14:57:14;74.22;;;33.35;;
49422;SDS011;36998;51.974;20.150;2022-11-15T14:59:39;70.10;;;33.28;;
49422;SDS011;36998;51.974;20.150;2022-11-15T15:02:14;64.88;;;30.85;;
49422;SDS011;36998;51.974;20.150;2022-11-15T15:04:43;74.70;;;32.22;;
49422;SDS011;36998;51.974;20.150;2022-11-15T15:07:08;76.15;;;32.45;;
49422;SDS011;36998;51.974;20.150;2022-11-15T15:09:34;77.82;;;32.08;;
49422;SDS011;36998;51.974;20.150;2022-11-15T15:11:59;82.63;;;35.25;;
49422;SDS011;36998;51.974;20.150;2022-11-15T15:14:25;105.25;;;38.05;;
49422;SDS011;36998;51.974;20.150;2022-11-15T15:16:50;99.57;;;39.17;;
49422;SDS011;36998;51.974;20.150;2022-11-15T15:19:15;105.72;;;36.92;;
49422;SDS011;36998;51.974;20.150;2022-11-15T15:21:41;102.80;;;37.55;;
49422;SDS011;36998;51.974;20.150;2022-11-15T15:24:08;107.95;;;41.92;;
49422;SDS011;36998;51.974;20.150;2022-11-15T15:26:39;102.35;;;36.60;;
49422;SDS011;36998;51.974;20.150;2022-11-15T15:29:05;105.90;;;36.80;;
49422;SDS011;36998;51.974;20.150;2022-11-15T15:31:31;113.43;;;39.38;;
49422;SDS011;36998;51.974;20.150;2022-11-15T15:33:58;126.95;;;41.28;;
49422;SDS011;36998;51.974;20.150;2022-11-15T15:36:23;115.57;;;39.63;;
49422;SDS011;36998;51.974;20.150;2022-11-15T15:38:49;118.13;;;39.45;;
49422;SDS011;36998;51.974;20.150;2022-11-15T15:41:14;116.90;;;39.97;;
49422;SDS011;36998;51.974;20.150;2022-11-15T15:43:41;134.90;;;45.67;;
49422;SDS011;36998;51.974;20.150;2022-11-15T15:46:11;141.82;;;47.35;;
49422;SDS011;36998;51.974;20.150;2022-11-15T15:48:38;155.27;;;51.42;;
49422;SDS011;36998;51.974;20.150;2022-11-15T15:51:05;183.65;;;58.13;;
49422;SDS011;36998;51.974;20.150;2022-11-15T15:53:31;170.05;;;54.13;;
49422;SDS011;36998;51.974;20.150;2022-11-15T15:55:56;165.05;;;52.15;;
49422;SDS011;36998;51.974;20.150;2022-11-15T15:58:22;143.77;;;48.63;;
49422;SDS011;36998;51.974;20.150;2022-11-15T16:00:48;150.75;;;47.55;;
49422;SDS011;36998;51.974;20.150;2022-11-15T16:03:13;135.80;;;44.33;;
49422;SDS011;36998;51.974;20.150;2022-11-15T16:05:38;135.27;;;47.60;;
49422;SDS011;36998;51.974;20.150;2022-11-15T16:08:04;136.02;;;48.53;;
49422;SDS011;36998;51.974;20.150;2022-11-15T16:10:33;123.03;;;46.47;;
49422;SDS011;36998;51.974;20.150;2022-11-15T16:12:59;138.50;;;47.45;;
49422;SDS011;36998;51.974;20.150;2022-11-15T16:15:26;124.93;;;45.65;;
49422;SDS011;36998;51.974;20.150;2022-11-15T16:17:55;117.25;;;43.65;;
49422;SDS011;36998;51.974;20.150;2022-11-15T16:22:53;127.90;;;43.85;;
49422;SDS011;36998;51.974;20.150;2022-11-15T16:25:18;105.93;;;40.95;;
49422;SDS011;36998;51.974;20.150;2022-11-15T16:27:44;106.13;;;40.38;;
49422;SDS011;36998;51.974;20.150;2022-11-15T16:30:12;111.63;;;41.85;;
49422;SDS011;36998;51.974;20.150;2022-11-15T16:32:39;97.28;;;36.35;;
49422;SDS011;36998;51.974;20.150;2022-11-15T16:35:05;100.97;;;39.58;;
49422;SDS011;36998;51.974;20.150;2022-11-15T16:37:31;100.88;;;37.95;;
49422;SDS011;36998;51.974;20.150;2022-11-15T16:39:56;99.43;;;36.63;;
49422;SDS011;36998;51.974;20.150;2022-11-15T16:42:22;91.22;;;34.90;;
49422;SDS011;36998;51.974;20.150;2022-11-15T16:44:47;93.13;;;34.45;;
49422;SDS011;36998;51.974;20.150;2022-11-15T16:47:19;88.65;;;33.72;;
49422;SDS011;36998;51.974;20.150;2022-11-15T16:49:44;84.88;;;34.15;;
49422;SDS011;36998;51.974;20.150;2022-11-15T16:52:10;92.93;;;34.92;;
49422;SDS011;36998;51.974;20.150;2022-11-15T16:54:36;93.50;;;34.40;;
49422;SDS011;36998;51.974;20.150;2022-11-15T16:57:01;103.25;;;36.90;;
49422;SDS011;36998;51.974;20.150;2022-11-15T16:59:27;90.93;;;34.03;;
49422;SDS011;36998;51.974;20.150;2022-11-15T17:01:52;87.55;;;34.45;;
49422;SDS011;36998;51.974;20.150;2022-11-15T17:04:18;90.80;;;34.10;;
49422;SDS011;36998;51.974;20.150;2022-11-15T17:06:47;90.85;;;34.22;;
49422;SDS011;36998;51.974;20.150;2022-11-15T17:09:14;88.35;;;35.13;;
49422;SDS011;36998;51.974;20.150;2022-11-15T17:11:45;83.90;;;34.97;;
49422;SDS011;36998;51.974;20.150;2022-11-15T17:14:11;95.63;;;38.53;;
49422;SDS011;36998;51.974;20.150;2022-11-15T17:16:37;102.40;;;38.72;;
49422;SDS011;36998;51.974;20.150;2022-11-15T17:19:10;94.28;;;35.35;;